sensor_id;sensor_type;location;lat;lon;timestamp;temperature;humidity
13074;DHT22;6603;47.066;15.396;2023-02-17T00:01:24;-0.20;99.90
13074;DHT22;6603;47.066;15.396;2023-02-17T00:03:49;-0.10;99.90
13074;DHT22;6603;47.066;15.396;2023-02-17T00:06:18;-0.10;99.90
13074;DHT22;6603;47.066;15.396;2023-02-17T00:08:45;0.00;99.90
13074;DHT22;6603;47.066;15.396;2023-02-17T00:11:11;0.00;96.00
13074;DHT22;6603;47.066;15.396;2023-02-17T00:13:37;0.00;99.90
13074;DHT22;6603;47.066;15.396;2023-02-17T00:16:18;0.10;99.90
13074;DHT22;6603;47.066;15.396;2023-02-17T00:18:45;0.10;99.90
13074;DHT22;6603;47.066;15.396;2023-02-17T00:21:16;0.10;99.90
13074;DHT22;6603;47.066;15.396;2023-02-17T00:23:44;0.20;99.90
13074;DHT22;6603;47.066;15.396;2023-02-17T00:26:11;0.20;99.90
13074;DHT22;6603;47.066;15.396;2023-02-17T00:28:37;0.30;99.90
13074;DHT22;6603;47.066;15.396;2023-02-17T00:31:12;0.30;93.90
13074;DHT22;6603;47.066;15.396;2023-02-17T00:33:38;0.30;99.70
13074;DHT22;6603;47.066;15.396;2023-02-17T00:36:06;0.30;93.40
13074;DHT22;6603;47.066;15.396;2023-02-17T00:38:34;0.30;97.10
13074;DHT22;6603;47.066;15.396;2023-02-17T00:40:59;0.20;99.90
13074;DHT22;6603;47.066;15.396;2023-02-17T00:43:25;0.20;99.90
13074;DHT22;6603;47.066;15.396;2023-02-17T00:45:51;0.20;99.90
13074;DHT22;6603;47.066;15.396;2023-02-17T00:48:17;0.20;99.90
13074;DHT22;6603;47.066;15.396;2023-02-17T00:50:44;0.30;99.90
13074;DHT22;6603;47.066;15.396;2023-02-17T00:53:10;0.30;99.90
13074;DHT22;6603;47.066;15.396;2023-02-17T00:55:36;0.30;97.00
13074;DHT22;6603;47.066;15.396;2023-02-17T00:58:02;0.40;99.90
13074;DHT22;6603;47.066;15.396;2023-02-17T01:00:28;0.40;99.90
13074;DHT22;6603;47.066;15.396;2023-02-17T01:02:54;0.40;99.90
13074;DHT22;6603;47.066;15.396;2023-02-17T01:05:20;0.50;99.90
13074;DHT22;6603;47.066;15.396;2023-02-17T01:07:46;0.50;99.90
13074;DHT22;6603;47.066;15.396;2023-02-17T01:10:12;0.40;99.90
13074;DHT22;6603;47.066;15.396;2023-02-17T01:12:38;0.40;99.90
13074;DHT22;6603;47.066;15.396;2023-02-17T01:15:05;0.40;99.90
13074;DHT22;6603;47.066;15.396;2023-02-17T01:17:31;0.50;99.90
13074;DHT22;6603;47.066;15.396;2023-02-17T01:19:57;0.50;99.90
13074;DHT22;6603;47.066;15.396;2023-02-17T01:22:23;0.50;99.90
13074;DHT22;6603;47.066;15.396;2023-02-17T01:24:49;0.60;99.90
13074;DHT22;6603;47.066;15.396;2023-02-17T01:27:15;0.60;99.90
13074;DHT22;6603;47.066;15.396;2023-02-17T01:29:44;0.60;99.90
13074;DHT22;6603;47.066;15.396;2023-02-17T01:32:10;0.60;99.90
13074;DHT22;6603;47.066;15.396;2023-02-17T01:34:37;0.60;99.90
13074;DHT22;6603;47.066;15.396;2023-02-17T01:37:03;0.60;99.90
13074;DHT22;6603;47.066;15.396;2023-02-17T01:39:29;0.50;99.90
13074;DHT22;6603;47.066;15.396;2023-02-17T01:41:55;0.50;99.90
13074;DHT22;6603;47.066;15.396;2023-02-17T01:44:23;0.50;99.90
13074;DHT22;6603;47.066;15.396;2023-02-17T01:46:51;0.50;99.90
13074;DHT22;6603;47.066;15.396;2023-02-17T01:51:51;0.50;99.90
13074;DHT22;6603;47.066;15.396;2023-02-17T01:54:23;0.50;99.90
13074;DHT22;6603;47.066;15.396;2023-02-17T01:56:52;0.50;99.90
13074;DHT22;6603;47.066;15.396;2023-02-17T01:59:20;0.50;99.90
13074;DHT22;6603;47.066;15.396;2023-02-17T02:01:49;0.60;99.90
13074;DHT22;6603;47.066;15.396;2023-02-17T02:04:19;0.50;99.90
13074;DHT22;6603;47.066;15.396;2023-02-17T02:06:46;0.60;99.90
13074;DHT22;6603;47.066;15.396;2023-02-17T02:09:25;0.70;99.90
13074;DHT22;6603;47.066;15.396;2023-02-17T02:11:53;0.70;99.90
13074;DHT22;6603;47.066;15.396;2023-02-17T02:14:20;0.70;99.90
13074;DHT22;6603;47.066;15.396;2023-02-17T02:31:08;0.80;99.90
13074;DHT22;6603;47.066;15.396;2023-02-17T02:33:45;0.70;97.70
13074;DHT22;6603;47.066;15.396;2023-02-17T02:36:26;0.60;96.00
13074;DHT22;6603;47.066;15.396;2023-02-17T02:39:02;0.70;99.90
13074;DHT22;6603;47.066;15.396;2023-02-17T02:41:36;0.70;99.90
13074;DHT22;6603;47.066;15.396;2023-02-17T02:44:04;0.70;99.90
13074;DHT22;6603;47.066;15.396;2023-02-17T02:46:31;0.70;99.90
13074;DHT22;6603;47.066;15.396;2023-02-17T02:48:58;0.70;99.90
13074;DHT22;6603;47.066;15.396;2023-02-17T03:02:15;0.90;99.90
13074;DHT22;6603;47.066;15.396;2023-02-17T03:05:04;0.80;99.90
13074;DHT22;6603;47.066;15.396;2023-02-17T03:07:48;0.80;99.90
13074;DHT22;6603;47.066;15.396;2023-02-17T03:10:16;0.90;99.90
13074;DHT22;6603;47.066;15.396;2023-02-17T03:12:42;0.90;99.90
13074;DHT22;6603;47.066;15.396;2023-02-17T03:15:18;0.80;99.90
13074;DHT22;6603;47.066;15.396;2023-02-17T03:17:46;0.80;99.90
13074;DHT22;6603;47.066;15.396;2023-02-17T03:20:13;0.70;99.90
13074;DHT22;6603;47.066;15.396;2023-02-17T03:22:44;0.80;99.90
13074;DHT22;6603;47.066;15.396;2023-02-17T03:25:11;0.80;99.90
13074;DHT22;6603;47.066;15.396;2023-02-17T03:27:37;0.80;99.90
13074;DHT22;6603;47.066;15.396;2023-02-17T03:30:04;0.80;99.90
13074;DHT22;6603;47.066;15.396;2023-02-17T03:32:30;0.80;99.90
13074;DHT22;6603;47.066;15.396;2023-02-17T03:34:56;0.80;99.90
13074;DHT22;6603;47.066;15.396;2023-02-17T03:37:22;0.80;99.90
13074;DHT22;6603;47.066;15.396;2023-02-17T03:39:48;0.90;99.90
13074;DHT22;6603;47.066;15.396;2023-02-17T03:42:14;1.00;99.90
13074;DHT22;6603;47.066;15.396;2023-02-17T03:44:40;0.90;99.90
13074;DHT22;6603;47.066;15.396;2023-02-17T03:47:06;0.70;99.90
13074;DHT22;6603;47.066;15.396;2023-02-17T03:49:32;0.80;99.90
13074;DHT22;6603;47.066;15.396;2023-02-17T03:51:58;0.80;99.90
13074;DHT22;6603;47.066;15.396;2023-02-17T03:54:25;0.80;99.90
13074;DHT22;6603;47.066;15.396;2023-02-17T03:56:51;0.90;99.90
13074;DHT22;6603;47.066;15.396;2023-02-17T03:59:17;0.90;99.90
13074;DHT22;6603;47.066;15.396;2023-02-17T04:01:43;0.90;99.90
13074;DHT22;6603;47.066;15.396;2023-02-17T04:04:09;0.90;99.90
13074;DHT22;6603;47.066;15.396;2023-02-17T04:06:35;0.90;99.90
13074;DHT22;6603;47.066;15.396;2023-02-17T04:09:02;1.00;99.90
13074;DHT22;6603;47.066;15.396;2023-02-17T04:11:28;1.00;99.90
13074;DHT22;6603;47.066;15.396;2023-02-17T04:13:54;1.00;99.90
13074;DHT22;6603;47.066;15.396;2023-02-17T04:16:20;0.90;99.90
13074;DHT22;6603;47.066;15.396;2023-02-17T04:18:46;0.90;99.90
13074;DHT22;6603;47.066;15.396;2023-02-17T04:21:12;0.80;99.90
13074;DHT22;6603;47.066;15.396;2023-02-17T04:23:38;0.80;99.90
13074;DHT22;6603;47.066;15.396;2023-02-17T04:26:06;0.70;99.90
13074;DHT22;6603;47.066;15.396;2023-02-17T04:28:33;0.80;99.90
13074;DHT22;6603;47.066;15.396;2023-02-17T04:30:59;0.80;99.90
13074;DHT22;6603;47.066;15.396;2023-02-17T04:33:25;0.80;99.90
13074;DHT22;6603;47.066;15.396;2023-02-17T04:35:51;0.90;99.90
13074;DHT22;6603;47.066;15.396;2023-02-17T04:38:31;0.80;99.90
13074;DHT22;6603;47.066;15.396;2023-02-17T04:40:58;0.90;99.90
13074;DHT22;6603;47.066;15.396;2023-02-17T04:43:26;1.00;99.90
13074;DHT22;6603;47.066;15.396;2023-02-17T04:45:52;1.00;99.90
13074;DHT22;6603;47.066;15.396;2023-02-17T04:48:18;1.00;99.90
13074;DHT22;6603;47.066;15.396;2023-02-17T04:50:44;1.00;99.90
13074;DHT22;6603;47.066;15.396;2023-02-17T04:53:11;1.00;99.90
13074;DHT22;6603;47.066;15.396;2023-02-17T04:55:39;1.00;99.90
13074;DHT22;6603;47.066;15.396;2023-02-17T04:58:05;1.00;99.90
13074;DHT22;6603;47.066;15.396;2023-02-17T05:00:31;1.00;99.90
13074;DHT22;6603;47.066;15.396;2023-02-17T05:02:57;1.00;99.90
13074;DHT22;6603;47.066;15.396;2023-02-17T05:05:23;0.90;99.90
13074;DHT22;6603;47.066;15.396;2023-02-17T05:07:49;0.90;99.90
13074;DHT22;6603;47.066;15.396;2023-02-17T05:10:16;0.90;99.90
13074;DHT22;6603;47.066;15.396;2023-02-17T05:12:43;0.90;99.90
13074;DHT22;6603;47.066;15.396;2023-02-17T05:15:10;0.90;99.90
13074;DHT22;6603;47.066;15.396;2023-02-17T05:17:36;0.80;99.90
13074;DHT22;6603;47.066;15.396;2023-02-17T05:20:04;0.70;99.90
13074;DHT22;6603;47.066;15.396;2023-02-17T05:22:30;0.70;99.90
13074;DHT22;6603;47.066;15.396;2023-02-17T05:24:56;0.60;99.90
13074;DHT22;6603;47.066;15.396;2023-02-17T05:27:23;0.50;99.90
13074;DHT22;6603;47.066;15.396;2023-02-17T05:29:49;0.50;99.90
13074;DHT22;6603;47.066;15.396;2023-02-17T05:32:16;0.50;99.90
13074;DHT22;6603;47.066;15.396;2023-02-17T05:34:43;0.40;99.90
13074;DHT22;6603;47.066;15.396;2023-02-17T05:37:09;0.60;99.90
13074;DHT22;6603;47.066;15.396;2023-02-17T05:39:35;0.40;99.90
13074;DHT22;6603;47.066;15.396;2023-02-17T05:42:01;0.30;99.90
13074;DHT22;6603;47.066;15.396;2023-02-17T06:07:25;-0.40;99.90
13074;DHT22;6603;47.066;15.396;2023-02-17T06:09:51;-0.40;99.90
13074;DHT22;6603;47.066;15.396;2023-02-17T06:12:17;-0.30;99.90
13074;DHT22;6603;47.066;15.396;2023-02-17T06:14:42;-0.40;99.90
13074;DHT22;6603;47.066;15.396;2023-02-17T06:17:09;-0.50;99.90
13074;DHT22;6603;47.066;15.396;2023-02-17T06:19:34;-0.70;99.90
13074;DHT22;6603;47.066;15.396;2023-02-17T06:22:00;-0.50;99.90
13074;DHT22;6603;47.066;15.396;2023-02-17T06:24:26;-0.60;99.90
13074;DHT22;6603;47.066;15.396;2023-02-17T06:26:51;-0.50;99.90
13074;DHT22;6603;47.066;15.396;2023-02-17T06:29:17;-0.60;99.90
13074;DHT22;6603;47.066;15.396;2023-02-17T06:31:43;-0.50;99.90
13074;DHT22;6603;47.066;15.396;2023-02-17T06:34:09;-0.40;99.90
13074;DHT22;6603;47.066;15.396;2023-02-17T06:36:34;-0.40;99.90
13074;DHT22;6603;47.066;15.396;2023-02-17T06:39:00;-0.30;99.90
13074;DHT22;6603;47.066;15.396;2023-02-17T06:41:26;-0.30;99.90
13074;DHT22;6603;47.066;15.396;2023-02-17T06:43:52;-0.30;99.90
13074;DHT22;6603;47.066;15.396;2023-02-17T06:46:17;-0.20;99.90
13074;DHT22;6603;47.066;15.396;2023-02-17T06:48:43;-0.10;99.90
13074;DHT22;6603;47.066;15.396;2023-02-17T06:51:09;-0.10;99.90
13074;DHT22;6603;47.066;15.396;2023-02-17T06:53:35;0.00;99.90
13074;DHT22;6603;47.066;15.396;2023-02-17T06:56:01;0.10;99.90
13074;DHT22;6603;47.066;15.396;2023-02-17T06:58:26;0.20;99.90
13074;DHT22;6603;47.066;15.396;2023-02-17T07:00:52;0.30;99.90
13074;DHT22;6603;47.066;15.396;2023-02-17T07:03:18;0.50;99.90
13074;DHT22;6603;47.066;15.396;2023-02-17T07:05:44;0.60;99.90
13074;DHT22;6603;47.066;15.396;2023-02-17T07:08:10;0.60;99.90
13074;DHT22;6603;47.066;15.396;2023-02-17T07:10:36;0.70;99.90
13074;DHT22;6603;47.066;15.396;2023-02-17T07:13:02;0.70;99.90
13074;DHT22;6603;47.066;15.396;2023-02-17T07:15:28;0.80;99.90
13074;DHT22;6603;47.066;15.396;2023-02-17T07:17:55;0.90;94.60
13074;DHT22;6603;47.066;15.396;2023-02-17T07:20:21;1.00;99.90
13074;DHT22;6603;47.066;15.396;2023-02-17T07:22:47;1.20;94.10
13074;DHT22;6603;47.066;15.396;2023-02-17T07:25:13;1.40;76.80
13074;DHT22;6603;47.066;15.396;2023-02-17T07:27:40;1.60;95.70
13074;DHT22;6603;47.066;15.396;2023-02-17T07:30:06;1.80;89.30
13074;DHT22;6603;47.066;15.396;2023-02-17T07:32:32;1.90;67.90
13074;DHT22;6603;47.066;15.396;2023-02-17T07:34:58;2.10;49.90
13074;DHT22;6603;47.066;15.396;2023-02-17T07:37:24;2.20;37.90
13074;DHT22;6603;47.066;15.396;2023-02-17T07:39:49;2.40;19.20
13074;DHT22;6603;47.066;15.396;2023-02-17T07:42:17;2.50;10.70
13074;DHT22;6603;47.066;15.396;2023-02-17T07:44:43;2.60;2.70
13074;DHT22;6603;47.066;15.396;2023-02-17T07:47:09;2.70;1.00
13074;DHT22;6603;47.066;15.396;2023-02-17T07:49:35;2.80;1.00
13074;DHT22;6603;47.066;15.396;2023-02-17T07:52:01;3.00;1.00
13074;DHT22;6603;47.066;15.396;2023-02-17T07:54:26;3.10;1.00
13074;DHT22;6603;47.066;15.396;2023-02-17T07:56:52;3.20;1.00
13074;DHT22;6603;47.066;15.396;2023-02-17T07:59:18;3.40;1.00
13074;DHT22;6603;47.066;15.396;2023-02-17T08:01:44;3.50;1.00
13074;DHT22;6603;47.066;15.396;2023-02-17T08:04:10;3.60;1.00
13074;DHT22;6603;47.066;15.396;2023-02-17T08:06:37;3.70;1.00
13074;DHT22;6603;47.066;15.396;2023-02-17T08:09:09;3.80;1.00
13074;DHT22;6603;47.066;15.396;2023-02-17T08:11:54;3.90;1.00
13074;DHT22;6603;47.066;15.396;2023-02-17T08:14:39;4.00;1.00
13074;DHT22;6603;47.066;15.396;2023-02-17T08:17:05;4.10;1.00
13074;DHT22;6603;47.066;15.396;2023-02-17T08:19:32;4.20;1.00
13074;DHT22;6603;47.066;15.396;2023-02-17T08:21:58;4.30;1.00
13074;DHT22;6603;47.066;15.396;2023-02-17T08:24:24;4.40;1.00
13074;DHT22;6603;47.066;15.396;2023-02-17T08:26:52;4.50;99.90
13074;DHT22;6603;47.066;15.396;2023-02-17T08:29:18;4.50;1.00
13074;DHT22;6603;47.066;15.396;2023-02-17T08:31:45;4.70;1.00
13074;DHT22;6603;47.066;15.396;2023-02-17T08:34:12;4.80;1.00
13074;DHT22;6603;47.066;15.396;2023-02-17T08:36:39;4.90;1.00
13074;DHT22;6603;47.066;15.396;2023-02-17T08:39:09;5.00;1.00
13074;DHT22;6603;47.066;15.396;2023-02-17T08:41:37;5.20;85.20
13074;DHT22;6603;47.066;15.396;2023-02-17T08:44:08;5.30;1.00
13074;DHT22;6603;47.066;15.396;2023-02-17T08:46:35;5.40;1.00
13074;DHT22;6603;47.066;15.396;2023-02-17T08:49:03;5.50;99.90
13074;DHT22;6603;47.066;15.396;2023-02-17T08:51:29;5.60;1.00
13074;DHT22;6603;47.066;15.396;2023-02-17T08:53:58;5.80;1.00
13074;DHT22;6603;47.066;15.396;2023-02-17T08:56:26;6.00;1.00
13074;DHT22;6603;47.066;15.396;2023-02-17T08:58:52;6.20;99.90
13074;DHT22;6603;47.066;15.396;2023-02-17T09:01:19;6.40;1.00
13074;DHT22;6603;47.066;15.396;2023-02-17T09:03:48;6.60;99.90
13074;DHT22;6603;47.066;15.396;2023-02-17T09:06:14;6.80;1.00
13074;DHT22;6603;47.066;15.396;2023-02-17T09:08:42;7.10;1.00
13074;DHT22;6603;47.066;15.396;2023-02-17T09:11:09;7.30;99.90
13074;DHT22;6603;47.066;15.396;2023-02-17T09:13:35;7.40;1.00
13074;DHT22;6603;47.066;15.396;2023-02-17T09:16:01;7.60;1.00
13074;DHT22;6603;47.066;15.396;2023-02-17T09:18:27;7.70;1.00
13074;DHT22;6603;47.066;15.396;2023-02-17T09:20:53;7.70;1.00
13074;DHT22;6603;47.066;15.396;2023-02-17T09:23:19;7.80;1.00
13074;DHT22;6603;47.066;15.396;2023-02-17T09:25:45;7.80;68.90
13074;DHT22;6603;47.066;15.396;2023-02-17T09:28:12;7.80;99.90
13074;DHT22;6603;47.066;15.396;2023-02-17T09:30:41;7.90;99.90
13074;DHT22;6603;47.066;15.396;2023-02-17T09:33:07;8.10;1.00
13074;DHT22;6603;47.066;15.396;2023-02-17T09:35:34;8.30;6.10
13074;DHT22;6603;47.066;15.396;2023-02-17T09:38:01;8.60;1.00
13074;DHT22;6603;47.066;15.396;2023-02-17T09:40:45;8.90;1.00
13074;DHT22;6603;47.066;15.396;2023-02-17T09:43:24;9.10;1.00
13074;DHT22;6603;47.066;15.396;2023-02-17T09:46:01;9.20;1.00
13074;DHT22;6603;47.066;15.396;2023-02-17T09:48:30;9.40;99.90
13074;DHT22;6603;47.066;15.396;2023-02-17T09:51:05;9.50;99.90
13074;DHT22;6603;47.066;15.396;2023-02-17T09:56:17;9.90;81.80
13074;DHT22;6603;47.066;15.396;2023-02-17T09:58:57;10.30;27.50
13074;DHT22;6603;47.066;15.396;2023-02-17T10:01:32;10.40;1.00
13074;DHT22;6603;47.066;15.396;2023-02-17T10:06:33;10.60;1.00
13074;DHT22;6603;47.066;15.396;2023-02-17T10:11:52;10.80;1.00
13074;DHT22;6603;47.066;15.396;2023-02-17T10:17:07;11.20;1.00
13074;DHT22;6603;47.066;15.396;2023-02-17T10:19:41;11.30;1.00
13074;DHT22;6603;47.066;15.396;2023-02-17T10:22:15;11.50;1.00
13074;DHT22;6603;47.066;15.396;2023-02-17T10:24:42;11.70;1.00
13074;DHT22;6603;47.066;15.396;2023-02-17T10:33:12;12.50;1.00
13074;DHT22;6603;47.066;15.396;2023-02-17T10:35:54;12.60;1.00
13074;DHT22;6603;47.066;15.396;2023-02-17T10:38:52;12.40;1.00
13074;DHT22;6603;47.066;15.396;2023-02-17T10:41:25;12.40;1.00
13074;DHT22;6603;47.066;15.396;2023-02-17T10:43:52;12.50;1.00
13074;DHT22;6603;47.066;15.396;2023-02-17T10:46:26;12.50;1.00
13074;DHT22;6603;47.066;15.396;2023-02-17T10:48:54;12.60;1.00
13074;DHT22;6603;47.066;15.396;2023-02-17T10:51:29;12.40;1.00
13074;DHT22;6603;47.066;15.396;2023-02-17T10:54:29;12.40;1.00
13074;DHT22;6603;47.066;15.396;2023-02-17T10:57:00;12.40;1.00
13074;DHT22;6603;47.066;15.396;2023-02-17T10:59:34;12.40;1.00
13074;DHT22;6603;47.066;15.396;2023-02-17T11:02:34;12.40;1.00
13074;DHT22;6603;47.066;15.396;2023-02-17T11:05:03;12.60;1.00
13074;DHT22;6603;47.066;15.396;2023-02-17T11:07:34;12.70;1.00
13074;DHT22;6603;47.066;15.396;2023-02-17T11:10:18;12.90;1.00
13074;DHT22;6603;47.066;15.396;2023-02-17T11:12:46;13.10;1.00
13074;DHT22;6603;47.066;15.396;2023-02-17T11:15:29;13.30;1.00
13074;DHT22;6603;47.066;15.396;2023-02-17T11:17:59;13.40;1.00
13074;DHT22;6603;47.066;15.396;2023-02-17T11:20:33;13.50;1.00
13074;DHT22;6603;47.066;15.396;2023-02-17T11:25:40;13.80;1.00
13074;DHT22;6603;47.066;15.396;2023-02-17T11:28:12;13.80;1.00
13074;DHT22;6603;47.066;15.396;2023-02-17T11:30:48;13.70;1.00
13074;DHT22;6603;47.066;15.396;2023-02-17T11:33:20;13.80;1.00
13074;DHT22;6603;47.066;15.396;2023-02-17T11:35:54;13.70;1.00
13074;DHT22;6603;47.066;15.396;2023-02-17T11:38:24;13.70;1.00
13074;DHT22;6603;47.066;15.396;2023-02-17T11:40:56;13.80;1.00
13074;DHT22;6603;47.066;15.396;2023-02-17T11:43:23;13.70;1.00
13074;DHT22;6603;47.066;15.396;2023-02-17T11:56:22;14.40;1.00
13074;DHT22;6603;47.066;15.396;2023-02-17T12:02:10;14.20;1.00
13074;DHT22;6603;47.066;15.396;2023-02-17T12:29:29;14.30;1.00
13074;DHT22;6603;47.066;15.396;2023-02-17T12:32:12;14.30;1.00
13074;DHT22;6603;47.066;15.396;2023-02-17T12:34:48;14.20;1.00
13074;DHT22;6603;47.066;15.396;2023-02-17T12:37:30;14.20;1.00
13074;DHT22;6603;47.066;15.396;2023-02-17T12:40:36;14.10;1.00
13074;DHT22;6603;47.066;15.396;2023-02-17T12:45:48;14.20;1.00
13074;DHT22;6603;47.066;15.396;2023-02-17T12:48:27;14.20;1.00
13074;DHT22;6603;47.066;15.396;2023-02-17T12:51:17;14.40;1.00
13074;DHT22;6603;47.066;15.396;2023-02-17T12:56:46;14.60;1.00
13074;DHT22;6603;47.066;15.396;2023-02-17T12:59:22;14.90;1.00
13074;DHT22;6603;47.066;15.396;2023-02-17T13:02:20;14.90;1.00
13074;DHT22;6603;47.066;15.396;2023-02-17T13:04:56;14.90;1.00
13074;DHT22;6603;47.066;15.396;2023-02-17T13:09:57;14.90;1.00
13074;DHT22;6603;47.066;15.396;2023-02-17T13:14:51;14.90;1.00
13074;DHT22;6603;47.066;15.396;2023-02-17T13:17:28;14.70;1.00
13074;DHT22;6603;47.066;15.396;2023-02-17T13:22:36;14.80;1.00
13074;DHT22;6603;47.066;15.396;2023-02-17T13:25:03;14.90;1.00
13074;DHT22;6603;47.066;15.396;2023-02-17T13:27:31;14.80;1.00
13074;DHT22;6603;47.066;15.396;2023-02-17T13:32:42;15.00;1.00
13074;DHT22;6603;47.066;15.396;2023-02-17T13:37:51;15.00;1.00
13074;DHT22;6603;47.066;15.396;2023-02-17T13:42:54;15.00;1.00
13074;DHT22;6603;47.066;15.396;2023-02-17T13:45:33;15.10;1.00
13074;DHT22;6603;47.066;15.396;2023-02-17T13:48:22;15.00;1.00
13074;DHT22;6603;47.066;15.396;2023-02-17T13:53:25;14.70;1.00
13074;DHT22;6603;47.066;15.396;2023-02-17T13:55:56;14.80;1.00
13074;DHT22;6603;47.066;15.396;2023-02-17T13:58:28;14.70;1.00
13074;DHT22;6603;47.066;15.396;2023-02-17T14:00:55;14.70;1.00
13074;DHT22;6603;47.066;15.396;2023-02-17T14:03:29;14.70;1.00
13074;DHT22;6603;47.066;15.396;2023-02-17T14:06:00;14.60;1.00
13074;DHT22;6603;47.066;15.396;2023-02-17T14:08:37;14.50;1.00
13074;DHT22;6603;47.066;15.396;2023-02-17T14:11:09;14.40;1.00
13074;DHT22;6603;47.066;15.396;2023-02-17T14:13:38;14.40;1.00
13074;DHT22;6603;47.066;15.396;2023-02-17T14:16:05;14.50;1.00
13074;DHT22;6603;47.066;15.396;2023-02-17T14:18:39;14.50;1.00
13074;DHT22;6603;47.066;15.396;2023-02-17T14:21:25;14.40;1.00
13074;DHT22;6603;47.066;15.396;2023-02-17T14:23:55;14.30;1.00
13074;DHT22;6603;47.066;15.396;2023-02-17T14:26:48;14.30;1.00
13074;DHT22;6603;47.066;15.396;2023-02-17T14:29:15;14.30;1.00
13074;DHT22;6603;47.066;15.396;2023-02-17T14:31:46;14.30;1.00
13074;DHT22;6603;47.066;15.396;2023-02-17T14:34:27;14.20;1.00
13074;DHT22;6603;47.066;15.396;2023-02-17T14:37:05;13.90;1.00
13074;DHT22;6603;47.066;15.396;2023-02-17T14:39:31;13.70;1.00
13074;DHT22;6603;47.066;15.396;2023-02-17T14:41:57;13.70;1.00
13074;DHT22;6603;47.066;15.396;2023-02-17T14:44:23;13.50;1.00
13074;DHT22;6603;47.066;15.396;2023-02-17T14:46:49;13.50;1.00
13074;DHT22;6603;47.066;15.396;2023-02-17T14:49:15;13.60;1.00
13074;DHT22;6603;47.066;15.396;2023-02-17T14:51:41;13.60;1.00
13074;DHT22;6603;47.066;15.396;2023-02-17T14:54:15;13.60;1.00
13074;DHT22;6603;47.066;15.396;2023-02-17T14:56:52;13.60;1.00
13074;DHT22;6603;47.066;15.396;2023-02-17T14:59:22;13.60;1.00
13074;DHT22;6603;47.066;15.396;2023-02-17T15:01:48;13.40;1.00
13074;DHT22;6603;47.066;15.396;2023-02-17T15:04:13;13.20;1.00
13074;DHT22;6603;47.066;15.396;2023-02-17T15:06:43;13.10;1.00
13074;DHT22;6603;47.066;15.396;2023-02-17T15:09:15;12.80;1.00
13074;DHT22;6603;47.066;15.396;2023-02-17T15:11:43;12.80;1.00
13074;DHT22;6603;47.066;15.396;2023-02-17T15:14:16;12.80;1.00
13074;DHT22;6603;47.066;15.396;2023-02-17T15:16:44;12.40;1.00
13074;DHT22;6603;47.066;15.396;2023-02-17T15:19:10;12.30;1.00
13074;DHT22;6603;47.066;15.396;2023-02-17T15:21:38;12.20;1.00
13074;DHT22;6603;47.066;15.396;2023-02-17T15:24:15;12.00;1.00
13074;DHT22;6603;47.066;15.396;2023-02-17T15:26:41;12.10;1.00
13074;DHT22;6603;47.066;15.396;2023-02-17T15:29:22;12.10;1.00
13074;DHT22;6603;47.066;15.396;2023-02-17T15:31:50;11.90;1.00
13074;DHT22;6603;47.066;15.396;2023-02-17T15:34:18;12.00;1.00
13074;DHT22;6603;47.066;15.396;2023-02-17T15:36:44;11.90;1.00
13074;DHT22;6603;47.066;15.396;2023-02-17T15:39:16;11.90;1.00
13074;DHT22;6603;47.066;15.396;2023-02-17T15:41:44;11.60;1.00
13074;DHT22;6603;47.066;15.396;2023-02-17T15:44:16;11.50;1.00
13074;DHT22;6603;47.066;15.396;2023-02-17T15:46:43;11.40;1.00
13074;DHT22;6603;47.066;15.396;2023-02-17T15:49:12;11.20;20.10
13074;DHT22;6603;47.066;15.396;2023-02-17T15:51:38;11.00;99.90
13074;DHT22;6603;47.066;15.396;2023-02-17T15:54:04;10.90;99.90
13074;DHT22;6603;47.066;15.396;2023-02-17T15:59:25;10.70;99.90
13074;DHT22;6603;47.066;15.396;2023-02-17T16:01:52;10.70;99.90
13074;DHT22;6603;47.066;15.396;2023-02-17T16:04:21;10.50;1.00
13074;DHT22;6603;47.066;15.396;2023-02-17T16:06:47;10.30;1.00
13074;DHT22;6603;47.066;15.396;2023-02-17T16:09:13;10.10;1.00
13074;DHT22;6603;47.066;15.396;2023-02-17T16:11:59;10.10;1.00
13074;DHT22;6603;47.066;15.396;2023-02-17T16:14:38;9.80;99.90
13074;DHT22;6603;47.066;15.396;2023-02-17T16:17:14;9.70;47.20
13074;DHT22;6603;47.066;15.396;2023-02-17T16:19:41;9.70;99.90
13074;DHT22;6603;47.066;15.396;2023-02-17T16:22:07;9.60;99.90
13074;DHT22;6603;47.066;15.396;2023-02-17T16:24:34;9.50;99.90
13074;DHT22;6603;47.066;15.396;2023-02-17T16:27:00;9.40;99.90
13074;DHT22;6603;47.066;15.396;2023-02-17T16:29:26;9.20;1.00
13074;DHT22;6603;47.066;15.396;2023-02-17T16:31:52;9.10;1.00
13074;DHT22;6603;47.066;15.396;2023-02-17T16:34:21;9.00;1.00
13074;DHT22;6603;47.066;15.396;2023-02-17T16:36:52;9.20;1.00
13074;DHT22;6603;47.066;15.396;2023-02-17T16:39:19;9.20;1.00
13074;DHT22;6603;47.066;15.396;2023-02-17T16:41:47;9.10;99.90
13074;DHT22;6603;47.066;15.396;2023-02-17T16:44:15;9.10;99.90
13074;DHT22;6603;47.066;15.396;2023-02-17T17:12:57;7.60;1.00
13074;DHT22;6603;47.066;15.396;2023-02-17T17:15:24;7.50;1.00
13074;DHT22;6603;47.066;15.396;2023-02-17T17:20:22;7.50;1.00
13074;DHT22;6603;47.066;15.396;2023-02-17T17:22:52;7.60;1.00
13074;DHT22;6603;47.066;15.396;2023-02-17T17:25:18;7.70;1.00
13074;DHT22;6603;47.066;15.396;2023-02-17T17:27:44;7.70;54.40
13074;DHT22;6603;47.066;15.396;2023-02-17T17:30:17;7.60;1.00
13074;DHT22;6603;47.066;15.396;2023-02-17T17:32:43;7.40;1.00
13074;DHT22;6603;47.066;15.396;2023-02-17T17:35:10;7.30;1.00
13074;DHT22;6603;47.066;15.396;2023-02-17T17:37:36;7.20;1.00
13074;DHT22;6603;47.066;15.396;2023-02-17T17:40:03;7.30;1.00
13074;DHT22;6603;47.066;15.396;2023-02-17T17:42:29;7.30;1.00
13074;DHT22;6603;47.066;15.396;2023-02-17T17:44:55;7.30;99.90
13074;DHT22;6603;47.066;15.396;2023-02-17T17:47:21;7.30;1.00
13074;DHT22;6603;47.066;15.396;2023-02-17T17:49:47;7.20;1.00
13074;DHT22;6603;47.066;15.396;2023-02-17T17:52:13;7.10;11.60
13074;DHT22;6603;47.066;15.396;2023-02-17T17:54:40;7.20;99.90
13074;DHT22;6603;47.066;15.396;2023-02-17T17:57:07;7.00;1.00
13074;DHT22;6603;47.066;15.396;2023-02-17T17:59:33;7.00;1.00
13074;DHT22;6603;47.066;15.396;2023-02-17T18:01:59;7.00;1.00
13074;DHT22;6603;47.066;15.396;2023-02-17T18:04:25;6.80;1.00
13074;DHT22;6603;47.066;15.396;2023-02-17T18:06:53;6.90;99.90
13074;DHT22;6603;47.066;15.396;2023-02-17T18:09:28;6.90;99.90
13074;DHT22;6603;47.066;15.396;2023-02-17T18:11:55;6.90;99.90
13074;DHT22;6603;47.066;15.396;2023-02-17T18:14:22;6.80;90.70
13074;DHT22;6603;47.066;15.396;2023-02-17T18:16:48;6.80;99.90
13074;DHT22;6603;47.066;15.396;2023-02-17T18:19:16;6.70;1.00
13074;DHT22;6603;47.066;15.396;2023-02-17T18:21:43;6.70;1.00
13074;DHT22;6603;47.066;15.396;2023-02-17T18:24:09;6.70;1.00
13074;DHT22;6603;47.066;15.396;2023-02-17T18:26:35;6.50;1.00
13074;DHT22;6603;47.066;15.396;2023-02-17T18:29:01;6.50;99.90
13074;DHT22;6603;47.066;15.396;2023-02-17T18:31:27;6.40;99.90
13074;DHT22;6603;47.066;15.396;2023-02-17T18:33:53;6.30;99.90
13074;DHT22;6603;47.066;15.396;2023-02-17T18:36:22;6.20;1.00
13074;DHT22;6603;47.066;15.396;2023-02-17T18:38:48;6.30;1.00
13074;DHT22;6603;47.066;15.396;2023-02-17T18:41:18;6.30;1.00
13074;DHT22;6603;47.066;15.396;2023-02-17T18:43:45;6.20;99.90